sensor_id;sensor_type;location;lat;lon;timestamp;P1;durP1;ratioP1;P2;durP2;ratioP2
59854;SDS011;45732;52.850;6.896;2023-07-22T00:01:26;12.40;;;6.68;;
59854;SDS011;45732;52.850;6.896;2023-07-22T00:03:51;12.60;;;7.18;;
59854;SDS011;45732;52.850;6.896;2023-07-22T00:06:17;13.45;;;7.43;;
59854;SDS011;45732;52.850;6.896;2023-07-22T00:08:43;12.60;;;7.00;;
59854;SDS011;45732;52.850;6.896;2023-07-22T00:11:08;12.30;;;7.20;;
59854;SDS011;45732;52.850;6.896;2023-07-22T00:13:34;12.10;;;7.10;;
59854;SDS011;45732;52.850;6.896;2023-07-22T00:16:00;13.30;;;7.20;;
59854;SDS011;45732;52.850;6.896;2023-07-22T00:18:27;12.50;;;7.55;;
59854;SDS011;45732;52.850;6.896;2023-07-22T00:20:53;14.13;;;7.55;;
59854;SDS011;45732;52.850;6.896;2023-07-22T00:23:20;13.80;;;7.63;;
59854;SDS011;45732;52.850;6.896;2023-07-22T00:25:46;15.00;;;7.80;;
59854;SDS011;45732;52.850;6.896;2023-07-22T00:28:12;14.52;;;8.07;;
59854;SDS011;45732;52.850;6.896;2023-07-22T00:30:38;13.73;;;7.43;;
59854;SDS011;45732;52.850;6.896;2023-07-22T00:33:04;12.80;;;7.38;;
59854;SDS011;45732;52.850;6.896;2023-07-22T00:35:31;16.10;;;8.18;;
59854;SDS011;45732;52.850;6.896;2023-07-22T00:37:57;15.63;;;8.30;;
59854;SDS011;45732;52.850;6.896;2023-07-22T00:40:23;12.52;;;7.35;;
59854;SDS011;45732;52.850;6.896;2023-07-22T00:42:49;13.50;;;7.82;;
59854;SDS011;45732;52.850;6.896;2023-07-22T00:45:15;15.77;;;8.10;;
59854;SDS011;45732;52.850;6.896;2023-07-22T00:47:41;13.35;;;7.72;;
59854;SDS011;45732;52.850;6.896;2023-07-22T00:50:07;13.40;;;7.30;;
59854;SDS011;45732;52.850;6.896;2023-07-22T00:52:36;15.40;;;8.27;;
59854;SDS011;45732;52.850;6.896;2023-07-22T00:55:03;14.38;;;8.23;;
59854;SDS011;45732;52.850;6.896;2023-07-22T00:57:30;17.13;;;7.93;;
59854;SDS011;45732;52.850;6.896;2023-07-22T00:59:56;14.38;;;8.18;;
59854;SDS011;45732;52.850;6.896;2023-07-22T01:02:22;14.05;;;8.55;;
59854;SDS011;45732;52.850;6.896;2023-07-22T01:04:48;13.20;;;8.35;;
59854;SDS011;45732;52.850;6.896;2023-07-22T01:07:15;12.63;;;7.68;;
59854;SDS011;45732;52.850;6.896;2023-07-22T01:09:41;16.33;;;8.48;;
59854;SDS011;45732;52.850;6.896;2023-07-22T01:12:08;13.60;;;8.35;;
59854;SDS011;45732;52.850;6.896;2023-07-22T01:14:36;13.00;;;7.40;;
59854;SDS011;45732;52.850;6.896;2023-07-22T01:17:03;14.63;;;8.55;;
59854;SDS011;45732;52.850;6.896;2023-07-22T01:19:30;15.18;;;8.10;;
59854;SDS011;45732;52.850;6.896;2023-07-22T01:22:00;13.52;;;8.25;;
59854;SDS011;45732;52.850;6.896;2023-07-22T01:24:28;14.45;;;7.95;;
59854;SDS011;45732;52.850;6.896;2023-07-22T01:26:54;13.55;;;8.73;;
59854;SDS011;45732;52.850;6.896;2023-07-22T01:29:21;14.50;;;8.63;;
59854;SDS011;45732;52.850;6.896;2023-07-22T01:31:48;13.27;;;8.65;;
59854;SDS011;45732;52.850;6.896;2023-07-22T01:34:15;15.25;;;8.48;;
59854;SDS011;45732;52.850;6.896;2023-07-22T01:36:42;15.57;;;8.77;;
59854;SDS011;45732;52.850;6.896;2023-07-22T01:39:08;14.45;;;8.25;;
59854;SDS011;45732;52.850;6.896;2023-07-22T01:41:36;14.95;;;8.77;;
59854;SDS011;45732;52.850;6.896;2023-07-22T01:44:02;14.70;;;8.68;;
59854;SDS011;45732;52.850;6.896;2023-07-22T01:46:28;13.57;;;8.48;;
59854;SDS011;45732;52.850;6.896;2023-07-22T01:48:55;15.15;;;8.57;;
59854;SDS011;45732;52.850;6.896;2023-07-22T01:51:20;16.15;;;8.90;;
59854;SDS011;45732;52.850;6.896;2023-07-22T01:53:46;13.98;;;8.55;;
59854;SDS011;45732;52.850;6.896;2023-07-22T01:56:12;14.80;;;8.20;;
59854;SDS011;45732;52.850;6.896;2023-07-22T01:58:38;16.00;;;9.20;;
59854;SDS011;45732;52.850;6.896;2023-07-22T02:01:04;13.95;;;8.27;;
59854;SDS011;45732;52.850;6.896;2023-07-22T02:03:30;15.57;;;9.02;;
59854;SDS011;45732;52.850;6.896;2023-07-22T02:06:02;12.68;;;8.35;;
59854;SDS011;45732;52.850;6.896;2023-07-22T02:08:29;15.40;;;8.93;;
59854;SDS011;45732;52.850;6.896;2023-07-22T02:10:55;14.73;;;8.70;;
59854;SDS011;45732;52.850;6.896;2023-07-22T02:13:26;14.18;;;8.65;;
59854;SDS011;45732;52.850;6.896;2023-07-22T02:15:51;14.85;;;8.63;;
59854;SDS011;45732;52.850;6.896;2023-07-22T02:18:17;15.95;;;8.70;;
59854;SDS011;45732;52.850;6.896;2023-07-22T02:20:43;14.82;;;8.60;;
59854;SDS011;45732;52.850;6.896;2023-07-22T02:23:08;14.02;;;7.97;;
59854;SDS011;45732;52.850;6.896;2023-07-22T02:25:35;13.77;;;8.48;;
59854;SDS011;45732;52.850;6.896;2023-07-22T02:28:01;14.50;;;8.70;;
59854;SDS011;45732;52.850;6.896;2023-07-22T02:30:27;14.68;;;8.70;;
59854;SDS011;45732;52.850;6.896;2023-07-22T02:32:52;14.38;;;8.32;;
59854;SDS011;45732;52.850;6.896;2023-07-22T02:35:18;14.77;;;8.77;;
59854;SDS011;45732;52.850;6.896;2023-07-22T02:37:44;13.88;;;8.40;;
59854;SDS011;45732;52.850;6.896;2023-07-22T02:40:10;16.55;;;9.27;;
59854;SDS011;45732;52.850;6.896;2023-07-22T02:42:36;17.63;;;9.02;;
59854;SDS011;45732;52.850;6.896;2023-07-22T02:45:03;16.17;;;8.80;;
59854;SDS011;45732;52.850;6.896;2023-07-22T02:47:29;14.05;;;8.93;;
59854;SDS011;45732;52.850;6.896;2023-07-22T02:49:57;15.00;;;8.80;;
59854;SDS011;45732;52.850;6.896;2023-07-22T02:52:23;13.10;;;8.48;;
59854;SDS011;45732;52.850;6.896;2023-07-22T02:55:04;17.95;;;9.88;;
59854;SDS011;45732;52.850;6.896;2023-07-22T02:57:33;18.73;;;9.75;;
59854;SDS011;45732;52.850;6.896;2023-07-22T02:59:59;14.82;;;9.00;;
59854;SDS011;45732;52.850;6.896;2023-07-22T03:02:24;17.05;;;8.95;;
59854;SDS011;45732;52.850;6.896;2023-07-22T03:04:50;19.65;;;10.05;;
59854;SDS011;45732;52.850;6.896;2023-07-22T03:07:16;15.30;;;9.43;;
59854;SDS011;45732;52.850;6.896;2023-07-22T03:09:41;14.52;;;9.02;;
59854;SDS011;45732;52.850;6.896;2023-07-22T03:12:07;19.13;;;9.75;;
59854;SDS011;45732;52.850;6.896;2023-07-22T03:14:33;18.27;;;10.43;;
59854;SDS011;45732;52.850;6.896;2023-07-22T03:17:02;15.82;;;9.52;;
59854;SDS011;45732;52.850;6.896;2023-07-22T03:19:29;15.98;;;9.73;;
59854;SDS011;45732;52.850;6.896;2023-07-22T03:21:54;19.52;;;9.98;;
59854;SDS011;45732;52.850;6.896;2023-07-22T03:24:20;16.98;;;9.93;;
59854;SDS011;45732;52.850;6.896;2023-07-22T03:26:46;17.90;;;10.93;;
59854;SDS011;45732;52.850;6.896;2023-07-22T03:29:11;15.50;;;9.48;;
59854;SDS011;45732;52.850;6.896;2023-07-22T03:31:37;17.05;;;10.65;;
59854;SDS011;45732;52.850;6.896;2023-07-22T03:34:04;16.70;;;10.07;;
59854;SDS011;45732;52.850;6.896;2023-07-22T03:36:29;16.85;;;10.93;;
59854;SDS011;45732;52.850;6.896;2023-07-22T03:38:58;20.13;;;11.40;;
59854;SDS011;45732;52.850;6.896;2023-07-22T03:41:25;16.70;;;10.77;;
59854;SDS011;45732;52.850;6.896;2023-07-22T03:43:50;16.23;;;10.07;;
59854;SDS011;45732;52.850;6.896;2023-07-22T03:46:16;17.92;;;11.55;;
59854;SDS011;45732;52.850;6.896;2023-07-22T03:48:42;17.00;;;10.98;;
59854;SDS011;45732;52.850;6.896;2023-07-22T03:51:08;20.90;;;11.68;;
59854;SDS011;45732;52.850;6.896;2023-07-22T03:53:33;15.95;;;10.82;;
59854;SDS011;45732;52.850;6.896;2023-07-22T03:55:59;19.02;;;11.45;;
59854;SDS011;45732;52.850;6.896;2023-07-22T03:58:25;17.90;;;11.60;;
59854;SDS011;45732;52.850;6.896;2023-07-22T04:00:50;20.27;;;11.80;;
59854;SDS011;45732;52.850;6.896;2023-07-22T04:03:16;18.70;;;11.45;;
59854;SDS011;45732;52.850;6.896;2023-07-22T04:05:42;20.27;;;11.90;;
59854;SDS011;45732;52.850;6.896;2023-07-22T04:08:08;16.98;;;11.43;;
59854;SDS011;45732;52.850;6.896;2023-07-22T04:10:33;18.60;;;11.02;;
59854;SDS011;45732;52.850;6.896;2023-07-22T04:12:59;21.45;;;11.80;;
59854;SDS011;45732;52.850;6.896;2023-07-22T04:15:25;19.95;;;12.07;;
59854;SDS011;45732;52.850;6.896;2023-07-22T04:17:50;15.65;;;10.90;;
59854;SDS011;45732;52.850;6.896;2023-07-22T04:20:16;19.88;;;11.30;;
59854;SDS011;45732;52.850;6.896;2023-07-22T04:22:43;18.45;;;11.52;;
59854;SDS011;45732;52.850;6.896;2023-07-22T04:25:09;19.00;;;11.73;;
59854;SDS011;45732;52.850;6.896;2023-07-22T04:27:35;19.80;;;11.75;;
59854;SDS011;45732;52.850;6.896;2023-07-22T04:30:00;17.92;;;11.10;;
59854;SDS011;45732;52.850;6.896;2023-07-22T04:32:26;18.65;;;11.23;;
59854;SDS011;45732;52.850;6.896;2023-07-22T04:34:53;18.60;;;11.20;;
59854;SDS011;45732;52.850;6.896;2023-07-22T04:37:19;19.35;;;11.30;;
59854;SDS011;45732;52.850;6.896;2023-07-22T04:39:48;19.65;;;12.07;;
59854;SDS011;45732;52.850;6.896;2023-07-22T04:42:15;17.75;;;10.85;;
59854;SDS011;45732;52.850;6.896;2023-07-22T04:44:41;18.65;;;11.68;;
59854;SDS011;45732;52.850;6.896;2023-07-22T04:47:09;16.00;;;10.60;;
59854;SDS011;45732;52.850;6.896;2023-07-22T04:49:35;18.80;;;11.93;;
59854;SDS011;45732;52.850;6.896;2023-07-22T04:52:01;19.00;;;11.25;;
59854;SDS011;45732;52.850;6.896;2023-07-22T04:54:27;18.80;;;11.48;;
59854;SDS011;45732;52.850;6.896;2023-07-22T04:56:53;16.80;;;10.85;;
59854;SDS011;45732;52.850;6.896;2023-07-22T04:59:19;17.30;;;11.02;;
59854;SDS011;45732;52.850;6.896;2023-07-22T05:01:44;17.75;;;10.60;;
59854;SDS011;45732;52.850;6.896;2023-07-22T05:04:10;15.35;;;10.45;;
59854;SDS011;45732;52.850;6.896;2023-07-22T05:06:36;18.77;;;10.82;;
59854;SDS011;45732;52.850;6.896;2023-07-22T05:09:02;18.27;;;10.77;;
59854;SDS011;45732;52.850;6.896;2023-07-22T05:11:28;19.15;;;10.90;;
59854;SDS011;45732;52.850;6.896;2023-07-22T05:13:54;16.70;;;11.15;;
59854;SDS011;45732;52.850;6.896;2023-07-22T05:16:20;17.38;;;11.07;;
59854;SDS011;45732;52.850;6.896;2023-07-22T05:18:46;15.93;;;10.13;;
59854;SDS011;45732;52.850;6.896;2023-07-22T05:21:12;17.08;;;11.43;;
59854;SDS011;45732;52.850;6.896;2023-07-22T05:23:37;15.38;;;10.18;;
59854;SDS011;45732;52.850;6.896;2023-07-22T05:26:03;15.80;;;10.65;;
59854;SDS011;45732;52.850;6.896;2023-07-22T05:28:29;15.88;;;10.35;;
59854;SDS011;45732;52.850;6.896;2023-07-22T05:30:55;17.35;;;10.50;;
59854;SDS011;45732;52.850;6.896;2023-07-22T05:33:21;14.68;;;10.05;;
59854;SDS011;45732;52.850;6.896;2023-07-22T05:35:47;15.70;;;10.73;;
59854;SDS011;45732;52.850;6.896;2023-07-22T05:38:12;15.90;;;10.48;;
59854;SDS011;45732;52.850;6.896;2023-07-22T05:40:38;17.40;;;11.27;;
59854;SDS011;45732;52.850;6.896;2023-07-22T05:43:04;14.20;;;9.52;;
59854;SDS011;45732;52.850;6.896;2023-07-22T05:45:29;14.93;;;10.40;;
59854;SDS011;45732;52.850;6.896;2023-07-22T05:47:55;15.77;;;9.98;;
59854;SDS011;45732;52.850;6.896;2023-07-22T05:50:21;16.25;;;10.77;;
59854;SDS011;45732;52.850;6.896;2023-07-22T05:52:46;18.25;;;11.23;;
59854;SDS011;45732;52.850;6.896;2023-07-22T05:55:13;18.35;;;11.13;;
59854;SDS011;45732;52.850;6.896;2023-07-22T05:57:40;18.00;;;11.15;;
59854;SDS011;45732;52.850;6.896;2023-07-22T06:00:06;15.48;;;10.55;;
59854;SDS011;45732;52.850;6.896;2023-07-22T06:02:34;16.70;;;10.50;;
59854;SDS011;45732;52.850;6.896;2023-07-22T06:04:59;17.77;;;11.05;;
59854;SDS011;45732;52.850;6.896;2023-07-22T06:07:26;16.85;;;10.10;;
59854;SDS011;45732;52.850;6.896;2023-07-22T06:09:52;17.48;;;10.90;;
59854;SDS011;45732;52.850;6.896;2023-07-22T06:12:18;18.10;;;10.38;;
59854;SDS011;45732;52.850;6.896;2023-07-22T06:14:43;15.60;;;10.43;;
59854;SDS011;45732;52.850;6.896;2023-07-22T06:17:09;15.85;;;10.35;;
59854;SDS011;45732;52.850;6.896;2023-07-22T06:19:35;17.95;;;11.07;;
59854;SDS011;45732;52.850;6.896;2023-07-22T06:22:00;17.92;;;10.85;;
59854;SDS011;45732;52.850;6.896;2023-07-22T06:24:26;16.00;;;10.65;;
59854;SDS011;45732;52.850;6.896;2023-07-22T06:26:52;16.23;;;11.00;;
59854;SDS011;45732;52.850;6.896;2023-07-22T06:29:17;16.83;;;10.77;;
59854;SDS011;45732;52.850;6.896;2023-07-22T06:31:43;15.73;;;11.23;;
59854;SDS011;45732;52.850;6.896;2023-07-22T06:34:09;17.35;;;10.95;;
59854;SDS011;45732;52.850;6.896;2023-07-22T06:36:34;17.98;;;11.10;;
59854;SDS011;45732;52.850;6.896;2023-07-22T06:39:00;19.08;;;11.55;;
59854;SDS011;45732;52.850;6.896;2023-07-22T06:41:26;19.95;;;11.57;;
59854;SDS011;45732;52.850;6.896;2023-07-22T06:43:51;17.20;;;11.27;;
59854;SDS011;45732;52.850;6.896;2023-07-22T06:46:17;17.35;;;11.95;;
59854;SDS011;45732;52.850;6.896;2023-07-22T06:48:43;20.33;;;12.57;;
59854;SDS011;45732;52.850;6.896;2023-07-22T06:51:08;18.67;;;13.50;;
59854;SDS011;45732;52.850;6.896;2023-07-22T06:53:34;21.45;;;12.48;;
59854;SDS011;45732;52.850;6.896;2023-07-22T06:56:00;18.17;;;12.90;;
59854;SDS011;45732;52.850;6.896;2023-07-22T06:58:25;19.70;;;13.07;;
59854;SDS011;45732;52.850;6.896;2023-07-22T07:00:53;18.73;;;13.50;;
59854;SDS011;45732;52.850;6.896;2023-07-22T07:03:19;22.42;;;14.70;;
59854;SDS011;45732;52.850;6.896;2023-07-22T07:05:51;25.02;;;16.63;;
59854;SDS011;45732;52.850;6.896;2023-07-22T07:08:19;25.25;;;16.17;;
59854;SDS011;45732;52.850;6.896;2023-07-22T07:10:45;21.70;;;15.02;;
59854;SDS011;45732;52.850;6.896;2023-07-22T07:13:11;24.02;;;15.73;;
59854;SDS011;45732;52.850;6.896;2023-07-22T07:15:37;23.50;;;16.25;;
59854;SDS011;45732;52.850;6.896;2023-07-22T07:18:03;22.15;;;15.48;;
59854;SDS011;45732;52.850;6.896;2023-07-22T07:20:28;22.35;;;15.38;;
59854;SDS011;45732;52.850;6.896;2023-07-22T07:22:54;22.77;;;15.48;;
59854;SDS011;45732;52.850;6.896;2023-07-22T07:25:20;22.17;;;15.50;;
59854;SDS011;45732;52.850;6.896;2023-07-22T07:27:45;22.63;;;15.80;;
59854;SDS011;45732;52.850;6.896;2023-07-22T07:30:11;22.23;;;14.80;;
59854;SDS011;45732;52.850;6.896;2023-07-22T07:32:37;21.63;;;15.13;;
59854;SDS011;45732;52.850;6.896;2023-07-22T07:35:02;24.65;;;15.63;;
59854;SDS011;45732;52.850;6.896;2023-07-22T07:37:29;25.30;;;14.50;;
59854;SDS011;45732;52.850;6.896;2023-07-22T07:39:56;21.40;;;14.52;;
59854;SDS011;45732;52.850;6.896;2023-07-22T07:42:27;21.00;;;14.32;;
59854;SDS011;45732;52.850;6.896;2023-07-22T07:44:53;21.95;;;15.10;;
59854;SDS011;45732;52.850;6.896;2023-07-22T07:47:19;20.42;;;15.00;;
59854;SDS011;45732;52.850;6.896;2023-07-22T07:49:45;24.00;;;15.73;;
59854;SDS011;45732;52.850;6.896;2023-07-22T07:52:11;21.80;;;15.43;;
59854;SDS011;45732;52.850;6.896;2023-07-22T07:54:37;22.73;;;15.70;;
59854;SDS011;45732;52.850;6.896;2023-07-22T07:57:03;22.98;;;15.25;;
59854;SDS011;45732;52.850;6.896;2023-07-22T07:59:29;23.50;;;15.75;;
59854;SDS011;45732;52.850;6.896;2023-07-22T08:01:54;22.88;;;15.13;;
59854;SDS011;45732;52.850;6.896;2023-07-22T08:04:20;21.25;;;14.73;;
59854;SDS011;45732;52.850;6.896;2023-07-22T08:06:46;24.45;;;16.45;;
59854;SDS011;45732;52.850;6.896;2023-07-22T08:09:11;21.08;;;15.35;;
59854;SDS011;45732;52.850;6.896;2023-07-22T08:11:43;22.48;;;15.48;;
59854;SDS011;45732;52.850;6.896;2023-07-22T08:14:09;19.73;;;15.43;;
59854;SDS011;45732;52.850;6.896;2023-07-22T08:16:35;20.58;;;15.40;;
59854;SDS011;45732;52.850;6.896;2023-07-22T08:19:01;22.38;;;14.90;;
59854;SDS011;45732;52.850;6.896;2023-07-22T08:21:27;21.30;;;14.80;;
59854;SDS011;45732;52.850;6.896;2023-07-22T08:23:52;20.50;;;14.45;;
59854;SDS011;45732;52.850;6.896;2023-07-22T08:26:18;18.70;;;13.32;;
59854;SDS011;45732;52.850;6.896;2023-07-22T08:28:49;20.92;;;14.18;;
59854;SDS011;45732;52.850;6.896;2023-07-22T08:31:15;18.80;;;13.13;;
59854;SDS011;45732;52.850;6.896;2023-07-22T08:33:40;18.15;;;13.25;;
59854;SDS011;45732;52.850;6.896;2023-07-22T08:36:06;18.75;;;13.20;;
59854;SDS011;45732;52.850;6.896;2023-07-22T08:38:32;18.27;;;12.13;;
59854;SDS011;45732;52.850;6.896;2023-07-22T08:40:58;16.17;;;11.55;;
59854;SDS011;45732;52.850;6.896;2023-07-22T08:43:23;16.48;;;11.43;;
59854;SDS011;45732;52.850;6.896;2023-07-22T08:45:51;18.95;;;11.90;;
59854;SDS011;45732;52.850;6.896;2023-07-22T08:48:19;17.88;;;11.85;;
59854;SDS011;45732;52.850;6.896;2023-07-22T08:53:38;16.83;;;11.55;;
59854;SDS011;45732;52.850;6.896;2023-07-22T08:56:05;16.05;;;10.43;;
59854;SDS011;45732;52.850;6.896;2023-07-22T08:58:30;17.52;;;9.55;;
59854;SDS011;45732;52.850;6.896;2023-07-22T09:00:58;14.77;;;10.32;;
59854;SDS011;45732;52.850;6.896;2023-07-22T09:03:24;18.67;;;10.77;;
59854;SDS011;45732;52.850;6.896;2023-07-22T09:05:50;12.60;;;8.52;;
59854;SDS011;45732;52.850;6.896;2023-07-22T09:08:16;14.88;;;9.68;;
59854;SDS011;45732;52.850;6.896;2023-07-22T09:10:42;15.48;;;10.30;;
59854;SDS011;45732;52.850;6.896;2023-07-22T09:13:08;13.80;;;10.07;;
59854;SDS011;45732;52.850;6.896;2023-07-22T09:15:35;13.73;;;9.68;;
59854;SDS011;45732;52.850;6.896;2023-07-22T09:18:01;14.65;;;9.70;;
59854;SDS011;45732;52.850;6.896;2023-07-22T09:20:30;14.43;;;9.45;;
59854;SDS011;45732;52.850;6.896;2023-07-22T09:22:56;14.57;;;9.60;;
59854;SDS011;45732;52.850;6.896;2023-07-22T09:25:24;16.27;;;9.20;;
59854;SDS011;45732;52.850;6.896;2023-07-22T09:27:52;12.07;;;8.05;;
59854;SDS011;45732;52.850;6.896;2023-07-22T09:30:20;13.95;;;9.10;;
59854;SDS011;45732;52.850;6.896;2023-07-22T09:32:57;13.73;;;8.55;;
59854;SDS011;45732;52.850;6.896;2023-07-22T09:35:26;12.93;;;8.00;;
59854;SDS011;45732;52.850;6.896;2023-07-22T09:37:54;12.40;;;8.65;;
59854;SDS011;45732;52.850;6.896;2023-07-22T09:40:21;15.57;;;8.80;;
59854;SDS011;45732;52.850;6.896;2023-07-22T09:42:51;14.48;;;9.30;;
59854;SDS011;45732;52.850;6.896;2023-07-22T09:45:18;16.45;;;9.05;;
59854;SDS011;45732;52.850;6.896;2023-07-22T09:47:47;12.57;;;7.93;;
59854;SDS011;45732;52.850;6.896;2023-07-22T09:50:18;10.73;;;7.53;;
59854;SDS011;45732;52.850;6.896;2023-07-22T09:52:50;11.75;;;6.88;;
59854;SDS011;45732;52.850;6.896;2023-07-22T09:55:20;14.65;;;7.65;;
59854;SDS011;45732;52.850;6.896;2023-07-22T09:57:52;15.40;;;8.55;;
59854;SDS011;45732;52.850;6.896;2023-07-22T10:00:19;14.35;;;8.45;;
59854;SDS011;45732;52.850;6.896;2023-07-22T10:02:47;9.93;;;6.10;;
59854;SDS011;45732;52.850;6.896;2023-07-22T10:05:17;8.15;;;4.25;;
59854;SDS011;45732;52.850;6.896;2023-07-22T10:07:47;9.52;;;5.35;;
59854;SDS011;45732;52.850;6.896;2023-07-22T10:10:16;10.20;;;5.95;;
59854;SDS011;45732;52.850;6.896;2023-07-22T10:12:46;10.40;;;6.78;;
59854;SDS011;45732;52.850;6.896;2023-07-22T10:15:14;11.02;;;5.85;;
59854;SDS011;45732;52.850;6.896;2023-07-22T10:17:41;9.50;;;5.95;;
59854;SDS011;45732;52.850;6.896;2023-07-22T10:20:08;10.48;;;6.47;;
59854;SDS011;45732;52.850;6.896;2023-07-22T10:22:42;11.20;;;6.57;;
59854;SDS011;45732;52.850;6.896;2023-07-22T10:25:10;10.50;;;5.97;;
59854;SDS011;45732;52.850;6.896;2023-07-22T10:27:46;8.95;;;6.05;;
59854;SDS011;45732;52.850;6.896;2023-07-22T10:30:14;9.48;;;5.72;;
59854;SDS011;45732;52.850;6.896;2023-07-22T10:32:42;10.90;;;6.45;;
59854;SDS011;45732;52.850;6.896;2023-07-22T10:35:08;10.73;;;6.75;;
59854;SDS011;45732;52.850;6.896;2023-07-22T10:37:35;8.90;;;5.72;;
59854;SDS011;45732;52.850;6.896;2023-07-22T10:43:05;10.63;;;7.15;;
59854;SDS011;45732;52.850;6.896;2023-07-22T10:45:40;10.52;;;6.70;;
59854;SDS011;45732;52.850;6.896;2023-07-22T10:48:09;9.40;;;6.00;;
59854;SDS011;45732;52.850;6.896;2023-07-22T10:53:29;9.95;;;6.80;;
59854;SDS011;45732;52.850;6.896;2023-07-22T10:56:12;10.55;;;6.55;;
59854;SDS011;45732;52.850;6.896;2023-07-22T11:04:13;8.02;;;6.05;;
59854;SDS011;45732;52.850;6.896;2023-07-22T11:14:28;10.25;;;6.88;;
59854;SDS011;45732;52.850;6.896;2023-07-22T11:17:28;10.63;;;7.20;;
59854;SDS011;45732;52.850;6.896;2023-07-22T11:19:55;12.27;;;7.55;;
59854;SDS011;45732;52.850;6.896;2023-07-22T11:22:21;11.43;;;7.28;;
59854;SDS011;45732;52.850;6.896;2023-07-22T11:24:47;11.00;;;7.50;;
59854;SDS011;45732;52.850;6.896;2023-07-22T11:27:13;11.02;;;7.43;;
59854;SDS011;45732;52.850;6.896;2023-07-22T11:29:39;12.30;;;8.13;;
59854;SDS011;45732;52.850;6.896;2023-07-22T11:32:05;11.35;;;8.43;;
59854;SDS011;45732;52.850;6.896;2023-07-22T11:34:40;12.80;;;8.25;;
59854;SDS011;45732;52.850;6.896;2023-07-22T11:37:05;12.85;;;8.98;;
59854;SDS011;45732;52.850;6.896;2023-07-22T11:39:31;13.85;;;8.20;;
59854;SDS011;45732;52.850;6.896;2023-07-22T11:41:59;11.02;;;8.23;;
59854;SDS011;45732;52.850;6.896;2023-07-22T11:44:27;12.63;;;8.68;;
59854;SDS011;45732;52.850;6.896;2023-07-22T11:46:55;13.15;;;9.32;;
59854;SDS011;45732;52.850;6.896;2023-07-22T11:49:40;13.95;;;9.75;;
59854;SDS011;45732;52.850;6.896;2023-07-22T11:52:15;13.45;;;9.60;;
59854;SDS011;45732;52.850;6.896;2023-07-22T11:54:43;13.50;;;10.23;;
59854;SDS011;45732;52.850;6.896;2023-07-22T11:59:49;10.25;;;7.75;;
59854;SDS011;45732;52.850;6.896;2023-07-22T12:02:17;11.88;;;7.53;;
59854;SDS011;45732;52.850;6.896;2023-07-22T12:04:43;9.18;;;6.78;;
59854;SDS011;45732;52.850;6.896;2023-07-22T12:07:25;10.23;;;6.85;;
59854;SDS011;45732;52.850;6.896;2023-07-22T12:09:52;10.38;;;6.78;;
59854;SDS011;45732;52.850;6.896;2023-07-22T12:12:19;10.95;;;6.80;;
59854;SDS011;45732;52.850;6.896;2023-07-22T12:14:45;8.68;;;6.53;;
59854;SDS011;45732;52.850;6.896;2023-07-22T12:17:11;8.68;;;6.35;;
59854;SDS011;45732;52.850;6.896;2023-07-22T12:19:37;9.85;;;6.95;;
59854;SDS011;45732;52.850;6.896;2023-07-22T12:22:02;9.48;;;6.93;;
59854;SDS011;45732;52.850;6.896;2023-07-22T12:24:29;9.40;;;7.20;;
59854;SDS011;45732;52.850;6.896;2023-07-22T12:26:55;8.93;;;6.53;;
59854;SDS011;45732;52.850;6.896;2023-07-22T12:29:21;10.93;;;8.25;;
59854;SDS011;45732;52.850;6.896;2023-07-22T12:31:50;9.32;;;7.63;;
59854;SDS011;45732;52.850;6.896;2023-07-22T12:34:17;11.70;;;9.20;;
59854;SDS011;45732;52.850;6.896;2023-07-22T12:36:42;11.40;;;8.43;;
59854;SDS011;45732;52.850;6.896;2023-07-22T12:39:08;12.45;;;8.90;;
59854;SDS011;45732;52.850;6.896;2023-07-22T12:41:34;9.90;;;7.93;;
59854;SDS011;45732;52.850;6.896;2023-07-22T12:44:00;11.00;;;7.78;;
59854;SDS011;45732;52.850;6.896;2023-07-22T12:46:25;10.15;;;7.70;;
59854;SDS011;45732;52.850;6.896;2023-07-22T12:48:51;11.00;;;7.93;;
59854;SDS011;45732;52.850;6.896;2023-07-22T12:51:17;10.95;;;7.55;;
59854;SDS011;45732;52.850;6.896;2023-07-22T12:53:42;9.35;;;7.05;;
59854;SDS011;45732;52.850;6.896;2023-07-22T12:56:08;9.00;;;7.18;;
59854;SDS011;45732;52.850;6.896;2023-07-22T12:58:34;9.52;;;7.22;;
59854;SDS011;45732;52.850;6.896;2023-07-22T13:00:59;8.88;;;7.10;;
59854;SDS011;45732;52.850;6.896;2023-07-22T13:03:25;10.32;;;6.90;;
59854;SDS011;45732;52.850;6.896;2023-07-22T13:05:51;9.10;;;6.10;;
59854;SDS011;45732;52.850;6.896;2023-07-22T13:08:16;9.13;;;6.10;;
59854;SDS011;45732;52.850;6.896;2023-07-22T13:10:42;9.73;;;6.13;;
59854;SDS011;45732;52.850;6.896;2023-07-22T13:13:10;8.32;;;5.95;;
59854;SDS011;45732;52.850;6.896;2023-07-22T13:15:36;8.40;;;5.60;;
59854;SDS011;45732;52.850;6.896;2023-07-22T13:18:02;8.60;;;5.72;;
59854;SDS011;45732;52.850;6.896;2023-07-22T13:20:28;8.75;;;6.05;;
59854;SDS011;45732;52.850;6.896;2023-07-22T13:22:54;8.95;;;6.45;;
59854;SDS011;45732;52.850;6.896;2023-07-22T13:25:20;11.43;;;7.20;;
59854;SDS011;45732;52.850;6.896;2023-07-22T13:27:46;10.25;;;7.57;;
59854;SDS011;45732;52.850;6.896;2023-07-22T13:30:12;11.20;;;7.45;;
59854;SDS011;45732;52.850;6.896;2023-07-22T13:32:38;11.55;;;7.55;;
59854;SDS011;45732;52.850;6.896;2023-07-22T13:35:04;11.40;;;7.55;;
59854;SDS011;45732;52.850;6.896;2023-07-22T13:37:31;9.15;;;6.93;;
59854;SDS011;45732;52.850;6.896;2023-07-22T13:39:56;10.57;;;7.47;;
59854;SDS011;45732;52.850;6.896;2023-07-22T13:42:23;11.25;;;7.55;;
59854;SDS011;45732;52.850;6.896;2023-07-22T13:44:49;9.52;;;6.80;;
59854;SDS011;45732;52.850;6.896;2023-07-22T13:47:15;10.35;;;7.50;;
59854;SDS011;45732;52.850;6.896;2023-07-22T13:49:41;9.48;;;7.15;;
59854;SDS011;45732;52.850;6.896;2023-07-22T13:52:07;12.93;;;7.22;;
59854;SDS011;45732;52.850;6.896;2023-07-22T13:54:32;11.60;;;7.05;;
59854;SDS011;45732;52.850;6.896;2023-07-22T13:56:58;10.50;;;7.32;;
59854;SDS011;45732;52.850;6.896;2023-07-22T13:59:24;10.05;;;7.22;;
59854;SDS011;45732;52.850;6.896;2023-07-22T14:01:49;10.43;;;7.10;;
59854;SDS011;45732;52.850;6.896;2023-07-22T14:04:15;8.98;;;6.97;;
59854;SDS011;45732;52.850;6.896;2023-07-22T14:06:41;10.63;;;7.00;;
59854;SDS011;45732;52.850;6.896;2023-07-22T14:09:07;12.30;;;7.95;;
59854;SDS011;45732;52.850;6.896;2023-07-22T14:11:33;10.38;;;7.97;;
59854;SDS011;45732;52.850;6.896;2023-07-22T14:13:58;9.90;;;8.15;;
59854;SDS011;45732;52.850;6.896;2023-07-22T14:16:24;11.20;;;7.75;;
59854;SDS011;45732;52.850;6.896;2023-07-22T14:18:50;10.85;;;7.88;;
59854;SDS011;45732;52.850;6.896;2023-07-22T14:21:17;10.50;;;8.10;;
59854;SDS011;45732;52.850;6.896;2023-07-22T14:23:43;11.05;;;8.50;;
59854;SDS011;45732;52.850;6.896;2023-07-22T14:26:09;11.52;;;8.80;;
59854;SDS011;45732;52.850;6.896;2023-07-22T14:28:35;10.90;;;8.50;;
59854;SDS011;45732;52.850;6.896;2023-07-22T14:31:01;13.02;;;8.77;;
59854;SDS011;45732;52.850;6.896;2023-07-22T14:33:27;10.88;;;8.88;;
59854;SDS011;45732;52.850;6.896;2023-07-22T14:35:53;12.13;;;9.68;;
59854;SDS011;45732;52.850;6.896;2023-07-22T14:38:19;12.88;;;10.43;;
59854;SDS011;45732;52.850;6.896;2023-07-22T14:40:45;12.93;;;9.75;;
59854;SDS011;45732;52.850;6.896;2023-07-22T14:43:11;12.70;;;10.52;;
59854;SDS011;45732;52.850;6.896;2023-07-22T14:45:36;14.70;;;10.82;;
59854;SDS011;45732;52.850;6.896;2023-07-22T14:48:02;15.55;;;12.20;;
59854;SDS011;45732;52.850;6.896;2023-07-22T14:50:28;14.23;;;12.68;;
59854;SDS011;45732;52.850;6.896;2023-07-22T14:52:53;14.38;;;12.88;;